Time;durP1;ratioP1;P1;durP2;ratioP2;P2;SDS_P1;SDS_P2;PMS_P1;PMS_P2;Temp;Humidity;BMP_temperature;BMP_pressure;BME280_temperature;BME280_humidity;BME280_pressure;Samples;Min_cycle;Max_cycle;Signal;HPM_P1;HPM_P2
2022/12/08 00:02:07;;;;;;;34.03;17.02;;;;;;;4.12;90.29;96381.81;5116338;28;20047;-61
2022/12/08 00:09:20;;;;;;;33.03;17.35;;;;;;;4.17;90.57;96386.94;5116282;28;20047;-61
2022/12/08 00:10:08;;;;;;;31.38;15.85;;;;;;;4.24;89.98;96391.16;5116401;28;20058;-63
2022/12/08 00:12:36;;;;;;;36.60;18.23;;;;;;;4.30;89.70;96396.25;5116222;28;20040;-63
2022/12/08 00:15:04;;;;;;;35.63;17.42;;;;;;;4.29;89.52;96394.53;5116112;28;20044;-62
2022/12/08 00:17:32;;;;;;;33.95;17.58;;;;;;;4.27;89.50;96401.47;5116199;28;20146;-63
2022/12/08 00:19:59;;;;;;;31.02;17.40;;;;;;;4.24;89.35;96400.66;5116236;28;20427;-63
2022/12/08 00:22:28;;;;;;;38.47;18.63;;;;;;;4.24;88.61;96409.28;5116023;28;20550;-63
2022/12/08 00:24:57;;;;;;;35.15;18.65;;;;;;;4.17;88.17;96413.69;5116067;28;20093;-62
2022/12/08 00:27:27;;;;;;;36.22;17.98;;;;;;;4.14;88.18;96412.88;5115957;28;20047;-60
2022/12/08 00:29:56;;;;;;;34.42;17.30;;;;;;;4.11;87.63;96407.75;5116007;28;20058;-63
2022/12/08 00:32:24;;;;;;;34.38;17.52;;;;;;;4.09;87.71;96402.59;5115883;28;20039;-63
2022/12/08 00:34:51;;;;;;;33.75;17.08;;;;;;;4.11;87.65;96408.59;5115865;28;20050;-62
2022/12/08 00:37:18;;;;;;;30.85;16.40;;;;;;;4.14;87.57;96411.16;5115862;28;20079;-62
2022/12/08 00:39:46;;;;;;;35.97;18.42;;;;;;;4.12;87.74;96414.66;5115724;28;20465;-61
2022/12/08 00:42:14;;;;;;;35.63;17.95;;;;;;;4.09;87.99;96412.94;5115594;28;20039;-63
2022/12/08 00:44:42;;;;;;;36.88;18.35;;;;;;;4.14;88.39;96418.06;5115378;28;20127;-63
2022/12/08 00:47:11;;;;;;;33.13;17.73;;;;;;;4.21;88.17;96405.88;5115393;28;20054;-62
2022/12/08 00:49:38;;;;;;;40.88;18.13;;;;;;;4.22;88.25;96405.88;5115399;28;20130;-61
2022/12/08 00:52:06;;;;;;;29.33;17.33;;;;;;;4.24;88.21;96403.25;5115564;28;20044;-61
2022/12/08 00:54:33;;;;;;;37.42;17.88;;;;;;;4.26;88.49;96404.94;5115420;28;20044;-63
2022/12/08 00:57:00;;;;;;;33.63;17.85;;;;;;;4.29;88.89;96401.44;5115339;28;20127;-61
2022/12/08 00:59:27;;;;;;;32.70;17.98;;;;;;;4.31;89.20;96399.69;5115348;28;20043;-63
2022/12/08 01:01:54;;;;;;;40.28;17.13;;;;;;;4.33;89.37;96395.31;5115173;28;20448;-62
2022/12/08 01:04:23;;;;;;;30.95;17.65;;;;;;;4.40;89.92;96401.28;5115245;28;20523;-62
2022/12/08 01:06:50;;;;;;;30.02;17.10;;;;;;;4.42;89.67;96397.78;5115070;28;20047;-63
2022/12/08 01:09:18;;;;;;;35.47;18.02;;;;;;;4.49;89.65;96393.34;5115108;28;20135;-62
2022/12/08 01:11:46;;;;;;;34.13;18.15;;;;;;;4.51;89.50;96399.38;5115031;28;20047;-63
2022/12/08 01:14:14;;;;;;;38.38;18.67;;;;;;;4.51;89.59;96394.19;5115046;28;20050;-62
2022/12/08 01:16:41;;;;;;;30.63;16.85;;;;;;;4.55;89.52;96402.78;5115035;28;20094;-62
2022/12/08 01:19:10;;;;;;;39.85;17.42;;;;;;;4.54;89.37;96401.91;5114942;28;20079;-63
2022/12/08 01:21:39;;;;;;;34.53;18.20;;;;;;;4.58;88.97;96397.56;5114932;28;20052;-62
2022/12/08 01:24:07;;;;;;;33.38;17.60;;;;;;;4.61;88.99;96402.66;5114992;28;20050;-63
2022/12/08 01:26:35;;;;;;;31.45;16.88;;;;;;;4.63;88.84;96387.94;5114778;28;20099;-62
2022/12/08 01:29:02;;;;;;;32.45;18.73;;;;;;;4.68;89.04;96393.06;5114748;28;20104;-63
2022/12/08 01:31:29;;;;;;;40.38;17.48;;;;;;;4.66;89.24;96393.09;5114755;28;20381;-62
2022/12/08 01:33:57;;;;;;;34.30;17.40;;;;;;;4.64;89.41;96394.00;5114621;28;20044;-63
2022/12/08 01:36:30;;;;;;;33.13;17.52;;;;;;;4.62;89.52;96394.03;5114579;28;20059;-63
2022/12/08 01:39:01;;;;;;;34.72;18.60;;;;;;;4.57;89.53;96394.97;5114371;28;20100;-62
2022/12/08 01:41:30;;;;;;;32.70;19.08;;;;;;;4.61;89.91;96400.06;5114356;28;20083;-63
2022/12/08 01:44:00;;;;;;;31.85;16.95;;;;;;;4.58;89.88;96397.56;5114377;28;20044;-62
2022/12/08 01:46:29;;;;;;;37.60;17.27;;;;;;;4.59;89.81;96404.44;5114436;28;20074;-62
2022/12/08 01:49:02;;;;;;;36.00;18.08;;;;;;;4.64;90.15;96405.19;5114366;28;20288;-62
2022/12/08 01:51:31;;;;;;;40.95;19.23;;;;;;;4.70;89.91;96406.84;5114323;28;20054;-62
2022/12/08 01:54:00;;;;;;;36.55;18.17;;;;;;;4.71;89.83;96395.59;5114403;28;20075;-63
2022/12/08 01:56:36;;;;;;;41.38;18.55;;;;;;;4.71;90.32;96405.97;5113645;28;20047;-62
2022/12/08 01:59:04;;;;;;;38.03;17.50;;;;;;;4.76;90.13;96392.94;5114114;28;20081;-62
2022/12/08 02:01:31;;;;;;;49.85;21.02;;;;;;;4.79;90.21;96396.31;5114203;28;20112;-62
2022/12/08 02:04:00;;;;;;;70.15;19.27;;;;;;;4.81;90.38;96393.69;5114091;28;20039;-62
2022/12/08 02:06:30;;;;;;;88.30;19.75;;;;;;;4.81;90.23;96391.09;5113935;28;20485;-62
2022/12/08 02:09:00;;;;;;;60.72;19.88;;;;;;;4.77;89.97;96387.72;5114183;28;20048;-62
2022/12/08 02:11:28;;;;;;;44.28;19.65;;;;;;;4.77;90.20;96382.53;5114024;28;20130;-63
2022/12/08 02:13:57;;;;;;;38.17;18.80;;;;;;;4.76;90.00;96385.16;5113907;28;20063;-62
2022/12/08 02:16:37;;;;;;;47.95;20.60;;;;;;;4.77;90.22;96386.84;5113976;28;20048;-62
2022/12/08 02:19:25;;;;;;;44.85;19.80;;;;;;;4.82;90.34;96379.00;5113907;28;20048;-62
2022/12/08 02:21:59;;;;;;;56.35;19.77;;;;;;;4.81;90.60;96378.13;5113809;28;20075;-63
2022/12/08 02:24:37;;;;;;;58.50;19.92;;;;;;;4.80;90.74;96376.44;5113689;28;20488;-63
2022/12/08 02:27:25;;;;;;;55.22;20.52;;;;;;;4.82;90.72;96369.50;5113678;28;20481;-63
2022/12/08 02:30:18;;;;;;;58.25;23.35;;;;;;;4.83;91.05;96371.19;5113697;28;20083;-62
2022/12/08 02:33:10;;;;;;;50.30;21.25;;;;;;;4.85;91.40;96371.19;5113816;28;20063;-62
2022/12/08 02:35:47;;;;;;;47.95;21.55;;;;;;;4.85;91.55;96371.19;5113658;28;20044;-62
2022/12/08 02:38:23;;;;;;;57.15;22.13;;;;;;;4.91;91.61;96376.25;5113598;28;20108;-62
2022/12/08 02:40:58;;;;;;;59.08;22.23;;;;;;;4.96;91.70;96378.78;5113280;28;20575;-62
2022/12/08 02:43:29;;;;;;;60.03;22.65;;;;;;;5.00;91.84;96383.00;5113492;28;20096;-63
2022/12/08 02:46:00;;;;;;;61.00;21.80;;;;;;;5.04;91.73;96382.94;5113481;28;20052;-63
2022/12/08 02:48:28;;;;;;;53.38;21.20;;;;;;;5.09;91.54;96376.78;5113517;28;20047;-63
2022/12/08 02:50:57;;;;;;;41.50;20.15;;;;;;;5.12;91.58;96390.53;5113365;28;20408;-62
2022/12/08 02:53:24;;;;;;;55.92;20.90;;;;;;;5.16;91.24;96387.03;5113465;28;20093;-62
2022/12/08 02:56:01;;;;;;;51.70;21.35;;;;;;;5.17;91.33;96382.69;5113199;28;20044;-62
2022/12/08 02:58:56;;;;;;;52.85;21.15;;;;;;;5.18;91.21;96385.25;5113491;28;20409;-61
2022/12/08 03:01:40;;;;;;;123.72;23.65;;;;;;;5.21;90.92;96386.91;5113256;28;20458;-62
2022/12/08 03:04:17;;;;;;;80.82;21.08;;;;;;;5.23;91.17;96384.28;5113363;28;20135;-62
2022/12/08 03:06:53;;;;;;;223.18;24.02;;;;;;;5.22;90.91;96382.59;5113183;28;20051;-62
2022/12/08 03:09:30;;;;;;;94.70;20.75;;;;;;;5.17;90.72;96383.53;5116691;28;20470;-62
2022/12/08 03:12:05;;;;;;;46.42;19.95;;;;;;;5.11;90.96;96391.44;5117516;28;20075;-62
2022/12/08 03:14:34;;;;;;;51.38;21.92;;;;;;;5.15;91.13;96395.69;5117516;28;20047;-62
2022/12/08 03:17:03;;;;;;;55.50;20.92;;;;;;;5.20;91.01;96387.81;5117337;28;20175;-63
2022/12/08 03:19:34;;;;;;;50.88;21.15;;;;;;;5.18;91.27;96390.44;5117372;28;20043;-63
2022/12/08 03:22:06;;;;;;;86.82;20.67;;;;;;;5.21;91.48;96384.31;5117230;28;20086;-63
2022/12/08 03:24:36;;;;;;;66.68;21.48;;;;;;;5.29;91.39;96397.16;5117201;28;20550;-62
2022/12/08 03:27:07;;;;;;;44.40;15.52;;;;;;;5.29;91.44;96395.44;5117082;28;20501;-62
2022/12/08 03:29:34;;;;;;;56.40;21.23;;;;;;;5.31;91.34;96398.84;5117042;28;20481;-63
2022/12/08 03:32:09;;;;;;;55.78;21.90;;;;;;;5.34;91.50;96397.06;5117025;28;20131;-62
2022/12/08 03:34:39;;;;;;;51.92;21.85;;;;;;;5.34;91.62;96394.47;5116937;28;20066;-62
2022/12/08 03:37:07;;;;;;;59.72;23.13;;;;;;;5.39;91.88;96400.44;5116995;28;20079;-63
2022/12/08 03:39:35;;;;;;;53.95;21.95;;;;;;;5.43;91.66;96397.75;5116973;28;20093;-62
2022/12/08 03:42:02;;;;;;;53.40;22.98;;;;;;;5.49;91.83;96386.41;5116622;28;20120;-62
2022/12/08 03:44:29;;;;;;;102.68;22.45;;;;;;;5.53;91.73;96393.22;5116785;28;20047;-62
2022/12/08 03:46:56;;;;;;;49.63;19.92;;;;;;;5.56;91.55;96397.50;5116747;28;20043;-62
2022/12/08 03:49:23;;;;;;;54.58;20.33;;;;;;;5.56;91.43;96392.31;5116858;28;20070;-62
2022/12/08 03:51:51;;;;;;;48.20;20.92;;;;;;;5.52;91.33;96390.66;5116810;28;20489;-62
2022/12/08 03:54:20;;;;;;;53.45;20.33;;;;;;;5.54;91.58;96394.09;5116671;28;20088;-62
2022/12/08 03:56:47;;;;;;;48.67;20.63;;;;;;;5.53;91.52;96406.19;5116554;28;20566;-62
2022/12/08 03:59:14;;;;;;;111.55;21.98;;;;;;;5.46;91.41;96390.78;5116578;28;20382;-63
2022/12/08 04:01:42;;;;;;;53.33;21.52;;;;;;;5.48;91.34;96389.03;5116578;28;20051;-62
2022/12/08 04:04:09;;;;;;;61.50;20.75;;;;;;;5.51;91.23;96396.75;5116487;28;20051;-62
2022/12/08 04:06:36;;;;;;;55.33;20.83;;;;;;;5.52;91.21;96393.25;5116436;28;20485;-62
2022/12/08 04:09:03;;;;;;;55.30;21.98;;;;;;;5.51;91.22;96392.41;5116577;28;20054;-62
2022/12/08 04:11:32;;;;;;;76.15;22.33;;;;;;;5.51;90.94;96399.34;5116222;28;20501;-62
2022/12/08 04:13:59;;;;;;;44.58;21.20;;;;;;;5.53;91.21;96401.00;5116207;28;20043;-62
2022/12/08 04:16:27;;;;;;;68.32;22.17;;;;;;;5.56;91.17;96405.28;5116228;28;20119;-62
2022/12/08 04:18:55;;;;;;;48.20;20.40;;;;;;;5.59;91.19;96402.63;5116282;28;20047;-62
2022/12/08 04:21:22;;;;;;;60.50;22.08;;;;;;;5.61;90.80;96400.88;5115596;28;20124;-63
2022/12/08 04:23:50;;;;;;;56.13;24.63;;;;;;;5.63;90.83;96400.84;5115938;28;20127;-63
2022/12/08 04:26:17;;;;;;;48.13;21.35;;;;;;;5.65;90.84;96399.91;5116156;28;20048;-62
2022/12/08 04:28:46;;;;;;;58.63;22.60;;;;;;;5.66;90.79;96398.19;5115930;28;20101;-62
2022/12/08 04:31:13;;;;;;;57.17;23.15;;;;;;;5.67;90.63;96402.47;5115948;28;20485;-62
2022/12/08 04:33:41;;;;;;;57.53;23.05;;;;;;;5.64;91.07;96402.53;5116004;28;20136;-62
2022/12/08 04:36:09;;;;;;;53.85;23.17;;;;;;;5.65;91.22;96402.50;5115782;28;20087;-62
2022/12/08 04:38:36;;;;;;;60.30;23.90;;;;;;;5.71;90.93;96409.31;5115677;28;20127;-63
2022/12/08 04:41:04;;;;;;;62.45;24.75;;;;;;;5.70;90.98;96407.59;5115505;28;20043;-63
2022/12/08 04:43:31;;;;;;;51.53;23.38;;;;;;;5.67;91.10;96408.53;5115606;28;20071;-62
2022/12/08 04:46:00;;;;;;;78.88;23.30;;;;;;;5.66;91.44;96405.97;5115547;28;20104;-62
2022/12/08 04:48:27;;;;;;;56.05;22.70;;;;;;;5.64;91.52;96398.22;5115593;28;20058;-63
2022/12/08 04:50:54;;;;;;;56.97;24.05;;;;;;;5.73;91.41;96406.69;5115582;28;20435;-63
2022/12/08 04:53:21;;;;;;;58.00;22.00;;;;;;;5.67;91.57;96405.94;5115631;28;20071;-62
2022/12/08 04:55:49;;;;;;;55.63;22.35;;;;;;;5.65;91.88;96410.28;5115430;28;20075;-62
2022/12/08 04:58:18;;;;;;;50.80;20.83;;;;;;;5.60;92.58;96409.50;5115338;28;20489;-63
2022/12/08 05:00:46;;;;;;;49.35;22.17;;;;;;;5.66;92.70;96418.94;5115227;28;20047;-62
2022/12/08 05:03:16;;;;;;;49.83;21.45;;;;;;;5.66;92.77;96422.38;5115302;28;20581;-62
2022/12/08 05:05:44;;;;;;;51.72;22.10;;;;;;;5.68;92.89;96419.75;5115197;28;20407;-63
2022/12/08 05:08:12;;;;;;;52.45;22.92;;;;;;;5.69;92.50;96417.13;5115125;28;20070;-62
2022/12/08 05:10:40;;;;;;;57.42;20.52;;;;;;;5.71;92.49;96419.69;5115168;28;20058;-63
2022/12/08 05:13:08;;;;;;;55.13;20.92;;;;;;;5.74;92.47;96422.22;5115122;28;20122;-63
2022/12/08 05:15:35;;;;;;;55.10;21.55;;;;;;;5.75;92.27;96425.69;5114968;28;20512;-62
2022/12/08 05:18:04;;;;;;;48.03;21.25;;;;;;;5.77;91.98;96434.28;5115074;28;20068;-63
2022/12/08 05:20:33;;;;;;;68.38;21.45;;;;;;;5.79;91.67;96420.41;5114845;28;20485;-63
2022/12/08 05:23:03;;;;;;;59.60;21.58;;;;;;;5.81;91.56;96428.16;5115021;28;20043;-63
2022/12/08 05:25:31;;;;;;;49.85;21.40;;;;;;;5.84;91.42;96428.06;5114976;28;20142;-62
2022/12/08 05:27:58;;;;;;;42.00;19.88;;;;;;;5.87;91.25;96437.56;5114775;28;20047;-62
2022/12/08 05:30:25;;;;;;;53.22;21.90;;;;;;;5.89;91.08;96438.34;5114727;28;20040;-62
2022/12/08 05:32:57;;;;;;;45.67;20.33;;;;;;;5.91;91.04;96439.19;5113726;28;20047;-62
2022/12/08 05:35:25;;;;;;;48.42;21.63;;;;;;;5.89;90.80;96443.56;5114670;28;20109;-63
2022/12/08 05:37:54;;;;;;;51.85;21.02;;;;;;;5.89;90.82;96439.22;5114566;28;20116;-63
2022/12/08 05:40:21;;;;;;;52.80;20.67;;;;;;;5.91;90.53;96449.59;5114358;28;20055;-62
2022/12/08 05:42:49;;;;;;;53.53;21.70;;;;;;;5.89;90.69;96456.53;5114521;28;20040;-63
2022/12/08 05:45:16;;;;;;;63.85;22.02;;;;;;;5.91;90.57;96449.59;5114482;28;20052;-63
2022/12/08 05:47:43;;;;;;;70.80;21.50;;;;;;;5.92;90.47;96457.34;5114369;28;20044;-63
2022/12/08 05:50:11;;;;;;;67.88;21.60;;;;;;;5.90;90.46;96451.31;5114482;28;20046;-63
2022/12/08 05:52:38;;;;;;;50.53;21.95;;;;;;;5.85;90.47;96449.69;5114271;28;20500;-62
2022/12/08 05:55:08;;;;;;;67.00;23.70;;;;;;;5.73;90.95;96449.06;5114309;28;20044;-62
2022/12/08 05:57:35;;;;;;;52.72;20.77;;;;;;;5.72;91.22;96444.75;5114320;28;20044;-63
2022/12/08 06:00:02;;;;;;;57.40;21.30;;;;;;;5.65;91.85;96446.63;5114243;28;20461;-62
2022/12/08 06:02:29;;;;;;;58.42;23.75;;;;;;;5.65;92.74;96449.22;5114105;28;20115;-63
2022/12/08 06:05:00;;;;;;;65.40;21.98;;;;;;;5.63;93.73;96447.56;5114100;28;20421;-62
2022/12/08 06:07:27;;;;;;;53.17;22.38;;;;;;;5.65;93.66;96456.16;5114002;28;20054;-62
2022/12/08 06:09:55;;;;;;;48.13;21.65;;;;;;;5.71;94.03;96448.25;5114155;28;20101;-62
2022/12/08 06:12:24;;;;;;;49.40;20.85;;;;;;;5.75;93.91;96455.06;5113977;28;20517;-62
2022/12/08 06:14:51;;;;;;;53.58;20.98;;;;;;;5.78;94.25;96457.63;5113949;28;20054;-63
2022/12/08 06:17:18;;;;;;;57.13;21.88;;;;;;;5.85;94.21;96465.28;5113914;28;20116;-63
2022/12/08 06:19:45;;;;;;;57.25;22.08;;;;;;;5.92;94.24;96464.25;5113852;28;20043;-63
2022/12/08 06:22:12;;;;;;;46.83;19.25;;;;;;;5.97;94.03;96459.84;5113734;28;20051;-62
2022/12/08 06:24:40;;;;;;;51.60;18.52;;;;;;;6.03;93.99;96459.72;5113833;28;20126;-62
2022/12/08 06:27:07;;;;;;;44.00;17.05;;;;;;;6.06;94.06;96464.84;5113799;28;20072;-62
2022/12/08 06:29:35;;;;;;;45.40;19.30;;;;;;;6.11;94.10;96469.13;5113737;28;20113;-62
2022/12/08 06:32:02;;;;;;;48.90;19.17;;;;;;;6.14;94.05;96474.25;5113599;28;20047;-62
2022/12/08 06:34:29;;;;;;;44.75;19.85;;;;;;;6.14;93.75;96471.66;5113705;28;20093;-63
2022/12/08 06:36:56;;;;;;;43.95;20.85;;;;;;;6.12;93.98;96471.69;5113576;28;20039;-62
2022/12/08 06:39:23;;;;;;;58.55;22.75;;;;;;;6.17;93.71;96469.00;5113547;28;20079;-63
2022/12/08 06:44:37;;;;;;;55.92;20.55;;;;;;;6.13;93.41;96457.81;5113415;28;20054;-63
2022/12/08 06:47:04;;;;;;;51.15;20.75;;;;;;;6.10;93.85;96467.38;5113547;28;20050;-62
2022/12/08 06:49:31;;;;;;;50.22;20.08;;;;;;;6.10;94.17;96475.19;5113447;28;20124;-63
2022/12/08 06:51:58;;;;;;;49.20;19.55;;;;;;;6.13;94.42;96472.53;5113391;28;20044;-63
2022/12/08 06:54:26;;;;;;;46.33;20.20;;;;;;;6.21;94.61;96485.34;5113479;28;20172;-63
2022/12/08 06:56:53;;;;;;;45.85;19.52;;;;;;;6.28;94.36;96492.13;5113483;28;20048;-62
2022/12/08 06:59:21;;;;;;;47.95;22.40;;;;;;;6.35;94.07;96496.28;5113303;28;20093;-63
2022/12/08 07:01:49;;;;;;;47.53;25.42;;;;;;;6.40;93.79;96498.78;5113385;28;20081;-63
2022/12/08 07:04:17;;;;;;;54.95;21.92;;;;;;;6.41;93.63;96508.31;5113355;28;20044;-62
2022/12/08 07:06:44;;;;;;;48.15;21.60;;;;;;;6.44;93.18;96510.81;5113352;28;20044;-63
2022/12/08 07:09:11;;;;;;;44.28;18.48;;;;;;;6.41;93.03;96506.56;5113282;28;20048;-61
2022/12/08 07:11:39;;;;;;;40.72;18.70;;;;;;;6.41;92.87;96516.94;5113274;28;20048;-62
2022/12/08 07:14:06;;;;;;;37.65;17.67;;;;;;;6.46;92.83;96509.06;5113260;28;20481;-62
2022/12/08 07:16:33;;;;;;;37.22;17.77;;;;;;;6.46;92.86;96511.66;5113169;28;20485;-63
2022/12/08 07:19:02;;;;;;;46.60;19.45;;;;;;;6.51;92.80;96509.81;5113274;28;20083;-63
2022/12/08 07:21:29;;;;;;;41.55;17.77;;;;;;;6.52;93.05;96511.53;5113301;28;20087;-62
2022/12/08 07:23:57;;;;;;;44.03;19.35;;;;;;;6.50;92.72;96508.09;5113233;28;20051;-63
2022/12/08 07:26:24;;;;;;;42.55;18.38;;;;;;;6.52;92.45;96513.25;5113224;28;20101;-62
2022/12/08 07:28:51;;;;;;;36.80;18.73;;;;;;;6.56;92.78;96509.69;5113130;28;20048;-63
2022/12/08 07:31:20;;;;;;;36.85;18.13;;;;;;;6.55;92.50;96514.06;5113150;28;20051;-62
2022/12/08 07:33:49;;;;;;;40.72;19.77;;;;;;;6.64;92.13;96522.53;5113059;28;20051;-63
2022/12/08 07:36:17;;;;;;;43.42;20.75;;;;;;;6.62;91.99;96524.31;5113056;28;20043;-62
2022/12/08 07:38:45;;;;;;;38.53;18.65;;;;;;;6.68;92.01;96521.56;5113169;28;20056;-62
2022/12/08 07:41:13;;;;;;;38.90;19.48;;;;;;;6.73;92.30;96524.06;5112853;28;20454;-62
2022/12/08 07:43:41;;;;;;;42.47;19.08;;;;;;;6.79;91.82;96519.59;5113023;28;20048;-63
2022/12/08 07:46:08;;;;;;;36.17;19.60;;;;;;;6.89;91.77;96528.03;5113048;28;20039;-63
2022/12/08 07:48:35;;;;;;;41.30;20.08;;;;;;;6.99;91.63;96526.06;5112835;28;20048;-63
2022/12/08 07:51:04;;;;;;;40.67;19.48;;;;;;;7.06;91.44;96525.03;5112885;28;20059;-63
2022/12/08 07:53:32;;;;;;;36.30;20.23;;;;;;;7.11;91.65;96532.72;5113102;28;20168;-63
2022/12/08 07:56:00;;;;;;;37.33;18.75;;;;;;;7.15;91.74;96531.75;5115342;28;20485;-63
2022/12/08 07:58:27;;;;;;;41.55;20.85;;;;;;;7.12;91.91;96534.44;5116509;28;20048;-63
2022/12/08 08:00:54;;;;;;;36.05;17.80;;;;;;;7.25;91.68;96534.13;5116622;28;20058;-63
2022/12/08 08:03:22;;;;;;;40.63;18.30;;;;;;;7.30;91.30;96543.53;5116492;28;20056;-63
2022/12/08 08:05:49;;;;;;;35.60;19.73;;;;;;;7.34;91.10;96536.47;5116539;28;20173;-63
2022/12/08 08:08:16;;;;;;;34.42;18.63;;;;;;;7.42;91.00;96538.91;5116358;28;20130;-63
2022/12/08 08:10:46;;;;;;;41.10;19.20;;;;;;;7.51;91.07;96545.63;5116401;28;20054;-63
2022/12/08 08:13:13;;;;;;;32.13;17.05;;;;;;;7.57;90.86;96542.88;5116295;28;20083;-63
2022/12/08 08:15:40;;;;;;;35.85;19.65;;;;;;;7.66;90.52;96540.03;5116321;28;20101;-62
2022/12/08 08:18:08;;;;;;;38.92;21.50;;;;;;;7.69;90.37;96544.28;5116232;28;20044;-62
2022/12/08 08:20:35;;;;;;;36.80;19.67;;;;;;;7.68;90.38;96543.41;5116140;28;20043;-62
2022/12/08 08:23:02;;;;;;;46.85;23.27;;;;;;;7.74;90.59;96551.97;5116233;28;20047;-62
2022/12/08 08:25:30;;;;;;;35.97;19.35;;;;;;;7.77;90.66;96552.75;5116139;28;20051;-62
2022/12/08 08:27:58;;;;;;;32.72;18.48;;;;;;;7.79;90.77;96553.56;5115922;28;20044;-62
2022/12/08 08:30:26;;;;;;;33.53;19.90;;;;;;;7.84;90.37;96543.91;5115897;28;20134;-62
2022/12/08 08:32:54;;;;;;;39.38;19.05;;;;;;;7.89;90.28;96545.50;5116038;28;20087;-62
2022/12/08 08:35:21;;;;;;;34.80;19.13;;;;;;;7.90;90.00;96542.88;5115822;28;20054;-62
2022/12/08 08:37:48;;;;;;;41.10;17.58;;;;;;;7.96;90.34;96539.22;5116002;28;20075;-62
2022/12/08 08:40:15;;;;;;;32.60;17.83;;;;;;;8.02;90.08;96535.59;5115566;28;20043;-62
2022/12/08 08:42:42;;;;;;;30.58;17.80;;;;;;;8.09;89.54;96531.91;5115674;28;20402;-62
2022/12/08 08:45:12;;;;;;;30.42;17.80;;;;;;;8.14;89.53;96534.41;5115700;28;20044;-63
2022/12/08 08:47:39;;;;;;;35.67;19.70;;;;;;;8.15;89.63;96531.75;5115634;28;20489;-63
2022/12/08 08:50:07;;;;;;;33.60;19.67;;;;;;;8.21;89.24;96528.13;5115587;28;20043;-63
2022/12/08 08:52:34;;;;;;;35.22;19.65;;;;;;;8.26;89.07;96528.84;5115591;28;20051;-63
2022/12/08 08:55:02;;;;;;;32.92;19.27;;;;;;;8.26;89.39;96523.63;5115502;28;20058;-63
2022/12/08 08:57:31;;;;;;;30.58;17.25;;;;;;;8.34;89.30;96513.00;5115521;28;20050;-63
2022/12/08 08:59:58;;;;;;;26.48;15.90;;;;;;;8.37;87.83;96525.06;5115404;28;20048;-63
2022/12/08 09:02:27;;;;;;;31.45;15.43;;;;;;;8.38;87.15;96516.34;5115313;28;20048;-63
2022/12/08 09:04:54;;;;;;;32.78;15.77;;;;;;;8.39;87.19;96520.66;5115346;28;20052;-63
2022/12/08 09:07:22;;;;;;;31.15;15.55;;;;;;;8.46;87.21;96512.59;5115248;28;20047;-61
2022/12/08 09:09:49;;;;;;;30.25;15.60;;;;;;;8.57;85.95;96517.53;5115224;28;20075;-63
2022/12/08 09:12:16;;;;;;;23.73;14.40;;;;;;;8.59;85.71;96517.50;5115175;28;20054;-63
2022/12/08 09:14:44;;;;;;;25.58;14.70;;;;;;;8.62;85.97;96517.41;5115176;28;20051;-63
2022/12/08 09:17:11;;;;;;;28.55;14.23;;;;;;;8.69;85.38;96513.69;5115122;28;20083;-62
2022/12/08 09:19:40;;;;;;;26.13;14.25;;;;;;;8.76;84.49;96518.72;5114926;28;20447;-62
2022/12/08 09:22:07;;;;;;;23.67;13.68;;;;;;;8.87;84.87;96505.34;5114994;28;20052;-62
2022/12/08 09:24:34;;;;;;;27.75;14.32;;;;;;;8.91;84.00;96504.34;5114990;28;20515;-63
2022/12/08 09:27:02;;;;;;;28.52;14.63;;;;;;;8.94;84.15;96501.66;5114876;28;20047;-63
2022/12/08 09:29:29;;;;;;;30.58;14.82;;;;;;;8.93;83.99;96499.94;5114632;28;20077;-62
2022/12/08 09:31:56;;;;;;;29.27;14.88;;;;;;;8.97;83.60;96493.69;5114722;28;20051;-62
2022/12/08 09:34:24;;;;;;;23.23;14.15;;;;;;;9.03;82.41;96492.69;5114795;28;20071;-62
2022/12/08 09:36:55;;;;;;;28.90;15.55;;;;;;;9.07;81.58;96494.28;5114795;28;20114;-62
2022/12/08 09:39:23;;;;;;;23.13;13.85;;;;;;;9.11;81.89;96493.25;5114650;28;20131;-62
2022/12/08 09:41:57;;;;;;;24.95;13.68;;;;;;;9.12;81.59;96499.34;5114403;28;20063;-63
2022/12/08 09:44:56;;;;;;;29.90;14.93;;;;;;;9.14;81.78;96498.38;5114662;28;20378;-63
2022/12/08 09:47:27;;;;;;;31.38;14.63;;;;;;;9.08;81.53;96496.84;5114547;28;20101;-62
2022/12/08 09:50:02;;;;;;;27.55;15.25;;;;;;;9.15;81.09;96492.25;5114383;28;20048;-63
2022/12/08 09:52:36;;;;;;;36.47;17.52;;;;;;;9.16;81.65;96499.19;5114378;28;20155;-62
2022/12/08 09:55:11;;;;;;;27.65;15.30;;;;;;;9.16;81.64;96493.13;5114229;28;20047;-62
2022/12/08 09:57:38;;;;;;;26.33;15.82;;;;;;;9.19;81.64;96483.44;5114274;28;20093;-62
2022/12/08 10:00:07;;;;;;;26.83;14.90;;;;;;;9.28;81.54;96487.50;5114347;28;20044;-62
2022/12/08 10:02:35;;;;;;;31.35;15.23;;;;;;;9.35;81.02;96485.50;5114182;28;20051;-63
2022/12/08 10:05:02;;;;;;;23.58;13.55;;;;;;;9.32;81.02;96480.41;5114173;28;20408;-63
2022/12/08 10:07:39;;;;;;;33.50;15.43;;;;;;;9.34;80.95;96476.00;5114013;28;20079;-63
2022/12/08 10:10:19;;;;;;;27.83;17.02;;;;;;;9.43;80.35;96469.59;5113960;28;20063;-63
2022/12/08 10:12:47;;;;;;;;;;;;;;;9.43;80.29;96472.22;5114508;28;20048;-61
2022/12/08 10:15:38;;;;;;;27.08;13.85;;;;;;;9.41;79.49;96460.94;5113923;28;20361;-63
2022/12/08 10:18:13;;;;;;;24.23;12.85;;;;;;;9.47;79.74;96455.53;5113424;28;20043;-61
2022/12/08 10:20:43;;;;;;;25.02;12.90;;;;;;;9.54;80.05;96456.16;5113977;28;20124;-63
2022/12/08 10:23:22;;;;;;;26.85;15.60;;;;;;;9.58;79.75;96461.22;5113876;28;20039;-63
2022/12/08 10:25:52;;;;;;;28.05;16.52;;;;;;;9.63;79.61;96453.22;5113779;28;20466;-63
2022/12/08 10:28:22;;;;;;;24.30;14.30;;;;;;;9.64;79.54;96456.69;5113771;28;20048;-64
2022/12/08 10:30:50;;;;;;;26.50;14.93;;;;;;;9.71;79.33;96463.41;5113589;28;20112;-63
2022/12/08 10:33:20;;;;;;;22.45;12.70;;;;;;;9.71;78.99;96453.81;5113624;28;20096;-63
2022/12/08 10:35:50;;;;;;;23.38;12.68;;;;;;;9.73;79.07;96451.97;5113677;28;20390;-62
2022/12/08 10:38:22;;;;;;;22.85;12.60;;;;;;;9.78;79.01;96453.59;5113712;28;20500;-63
2022/12/08 10:40:52;;;;;;;22.80;11.82;;;;;;;9.65;77.85;96442.72;5113362;28;20079;-63
2022/12/08 10:43:22;;;;;;;21.17;13.82;;;;;;;9.68;77.71;96440.00;5113608;28;20058;-63
2022/12/08 10:45:50;;;;;;;18.25;11.40;;;;;;;9.68;78.51;96440.00;5113675;28;20047;-63
2022/12/08 10:48:20;;;;;;;19.40;12.68;;;;;;;9.72;78.43;96442.44;5113563;28;20079;-63
2022/12/08 10:50:53;;;;;;;29.27;14.50;;;;;;;9.75;78.57;96435.41;5113554;28;20096;-63
2022/12/08 10:53:23;;;;;;;23.33;12.82;;;;;;;9.72;77.94;96426.78;5113498;28;20082;-63
2022/12/08 10:55:53;;;;;;;21.85;11.68;;;;;;;9.64;78.53;96430.56;5113453;28;20130;-63
2022/12/08 10:58:30;;;;;;;21.27;12.88;;;;;;;9.61;79.20;96426.31;5113514;28;20052;-63
2022/12/08 11:00:59;;;;;;;24.20;13.23;;;;;;;9.48;79.25;96424.13;5113493;28;20048;-63
2022/12/08 11:03:30;;;;;;;27.33;16.13;;;;;;;9.48;79.06;96423.28;5113349;28;20100;-63
2022/12/08 11:06:00;;;;;;;30.38;17.42;;;;;;;9.53;79.25;96420.50;5113311;28;20071;-63
2022/12/08 11:08:30;;;;;;;17.77;12.00;;;;;;;9.48;78.75;96424.13;5113396;28;20130;-63
2022/12/08 11:10:57;;;;;;;26.75;12.45;;;;;;;9.46;78.55;96417.28;5113315;28;20060;-62
2022/12/08 11:13:28;;;;;;;22.63;12.38;;;;;;;9.44;78.53;96413.84;5113249;28;20432;-62
2022/12/08 11:15:57;;;;;;;21.52;12.18;;;;;;;9.42;78.29;96415.69;5113315;28;20043;-63
2022/12/08 11:18:28;;;;;;;19.48;12.48;;;;;;;9.45;78.08;96416.41;5113338;28;20263;-63
2022/12/08 11:21:01;;;;;;;20.67;12.15;;;;;;;9.47;78.65;96405.91;5113347;28;20059;-63
2022/12/08 11:23:30;;;;;;;22.42;12.10;;;;;;;9.50;79.44;96415.38;5113422;28;20083;-63
2022/12/08 11:26:05;;;;;;;23.20;12.82;;;;;;;9.48;79.66;96411.06;5113287;28;20048;-62
2022/12/08 11:28:33;;;;;;;19.95;12.55;;;;;;;9.60;78.82;96407.16;5113260;28;20047;-63
2022/12/08 11:31:07;;;;;;;17.45;11.80;;;;;;;9.70;78.71;96412.06;5115705;28;20628;-63
2022/12/08 11:33:35;;;;;;;17.10;10.40;;;;;;;9.72;78.61;96405.00;5117153;28;20101;-63
2022/12/08 11:36:05;;;;;;;18.13;11.52;;;;;;;9.79;78.38;96403.91;5117185;28;20065;-63
2022/12/08 11:38:42;;;;;;;15.27;10.35;;;;;;;9.86;77.98;96404.50;5117104;28;20050;-62
2022/12/08 11:41:12;;;;;;;17.67;10.38;;;;;;;9.85;77.61;96395.81;5116731;28;20058;-63